createdAt,value
2018-12-29T00:02:03.049Z,0.90
2018-12-29T00:04:32.164Z,1.00
2018-12-29T00:07:01.004Z,0.90
2018-12-29T00:09:30.139Z,0.90
2018-12-29T00:11:59.103Z,0.90
2018-12-29T00:14:28.210Z,0.80
2018-12-29T00:16:57.048Z,0.80
2018-12-29T00:19:26.639Z,0.70
2018-12-29T00:21:55.745Z,0.80
2018-12-29T00:24:24.653Z,0.90
2018-12-29T00:26:53.740Z,0.90
2018-12-29T00:29:22.626Z,0.90
2018-12-29T00:31:51.761Z,1.00
2018-12-29T00:34:20.678Z,1.00
2018-12-29T00:36:49.843Z,1.00
2018-12-29T00:39:18.771Z,1.00
2018-12-29T00:41:47.919Z,1.00
2018-12-29T00:44:16.826Z,0.90
2018-12-29T00:46:45.956Z,0.90
2018-12-29T00:49:15.121Z,0.90
2018-12-29T00:51:44.274Z,0.90
2018-12-29T00:54:13.389Z,0.80
2018-12-29T00:56:42.459Z,0.70
2018-12-29T00:59:11.373Z,0.80
2018-12-29T01:01:40.309Z,0.80
2018-12-29T01:04:09.154Z,0.80
2018-12-29T01:06:38.097Z,0.80
2018-12-29T01:09:07.689Z,0.80
2018-12-29T01:11:36.594Z,0.80
2018-12-29T01:14:06.707Z,0.70
2018-12-29T01:16:35.655Z,0.60
2018-12-29T01:19:04.825Z,0.60
2018-12-29T01:21:33.754Z,0.70
2018-12-29T01:24:03.254Z,0.70
2018-12-29T01:26:32.508Z,0.60
2018-12-29T01:29:01.430Z,0.60
2018-12-29T01:31:30.747Z,0.60
2018-12-29T01:34:00.115Z,0.60
2018-12-29T01:36:29.301Z,0.70
2018-12-29T01:38:58.416Z,0.60
2018-12-29T01:41:27.679Z,0.60
2018-12-29T01:43:56.566Z,0.60
2018-12-29T01:46:25.558Z,0.60
2018-12-29T01:48:54.728Z,0.50
2018-12-29T01:51:23.852Z,0.60
2018-12-29T01:53:52.705Z,0.60
2018-12-29T01:56:21.550Z,0.50
2018-12-29T01:58:50.379Z,0.40
2018-12-29T02:01:19.459Z,0.50
2018-12-29T02:03:48.562Z,0.50
2018-12-29T02:06:17.426Z,0.50
2018-12-29T02:08:46.575Z,0.40
2018-12-29T02:11:15.424Z,0.40
2018-12-29T02:13:44.364Z,0.40
2018-12-29T02:16:13.187Z,0.40
2018-12-29T02:18:42.238Z,0.40
2018-12-29T02:21:11.049Z,0.50
2018-12-29T02:23:39.891Z,0.50
2018-12-29T02:26:08.748Z,0.40
2018-12-29T02:28:37.628Z,0.40
2018-12-29T02:31:06.458Z,0.60
2018-12-29T02:33:35.534Z,0.60
2018-12-29T02:36:04.511Z,0.70
2018-12-29T02:38:33.721Z,0.60
2018-12-29T02:41:02.587Z,0.70
2018-12-29T02:43:31.509Z,0.80
2018-12-29T02:46:00.437Z,0.80
2018-12-29T02:48:29.593Z,0.80
2018-12-29T02:50:58.857Z,0.80
2018-12-29T02:53:27.695Z,0.80
2018-12-29T02:55:56.778Z,0.80
2018-12-29T02:58:25.857Z,0.80
2018-12-29T03:03:23.436Z,0.80
2018-12-29T03:05:52.905Z,0.80
2018-12-29T03:08:21.823Z,0.80
2018-12-29T03:10:50.845Z,0.70
2018-12-29T03:13:19.946Z,0.70
2018-12-29T03:15:49.125Z,0.70
2018-12-29T03:18:18.551Z,0.70
2018-12-29T03:20:47.398Z,0.70
2018-12-29T03:23:16.572Z,0.70
2018-12-29T03:25:45.497Z,0.70
2018-12-29T03:28:14.922Z,0.70
2018-12-29T03:30:43.738Z,0.70
2018-12-29T03:33:12.813Z,0.70
2018-12-29T03:35:41.658Z,0.70
2018-12-29T03:38:10.821Z,0.60
2018-12-29T03:40:39.726Z,0.60
2018-12-29T03:43:08.929Z,0.60
2018-12-29T03:45:37.852Z,0.60
2018-12-29T03:48:06.972Z,0.60
2018-12-29T03:50:36.192Z,0.60
2018-12-29T03:53:05.123Z,0.70
2018-12-29T03:55:34.528Z,0.70
2018-12-29T03:58:03.435Z,0.70
2018-12-29T04:00:32.613Z,0.60
2018-12-29T04:03:01.826Z,0.50
2018-12-29T04:05:33.831Z,0.50
2018-12-29T04:08:02.678Z,0.40
2018-12-29T04:10:31.854Z,0.50
2018-12-29T04:13:01.717Z,0.50
2018-12-29T04:15:30.812Z,0.60
2018-12-29T04:17:59.874Z,0.60
2018-12-29T04:20:28.949Z,0.60
2018-12-29T04:22:57.781Z,0.60
2018-12-29T04:25:26.675Z,0.70
2018-12-29T04:27:55.756Z,0.70
2018-12-29T04:30:24.898Z,0.70
2018-12-29T04:32:53.742Z,0.70
2018-12-29T04:35:23.152Z,0.60
2018-12-29T04:37:52.298Z,0.70
2018-12-29T04:40:21.450Z,0.60
2018-12-29T04:42:50.315Z,0.60
2018-12-29T04:45:19.615Z,0.50
2018-12-29T04:47:49.289Z,0.50
2018-12-29T04:50:18.386Z,0.50
2018-12-29T04:52:47.571Z,0.50
2018-12-29T04:55:16.666Z,0.60
2018-12-29T04:57:45.532Z,0.50
2018-12-29T05:00:14.517Z,0.60
2018-12-29T05:02:43.638Z,0.60
2018-12-29T05:05:12.560Z,0.50
2018-12-29T05:07:41.961Z,0.50
2018-12-29T05:10:11.195Z,0.50
2018-12-29T05:12:40.276Z,0.60
2018-12-29T05:15:09.528Z,0.50
2018-12-29T05:17:38.973Z,0.50
2018-12-29T05:20:07.920Z,0.50
2018-12-29T05:22:36.902Z,0.60
2018-12-29T05:25:06.342Z,0.60
2018-12-29T05:27:35.340Z,0.50
2018-12-29T05:30:04.832Z,0.60
2018-12-29T05:32:34.060Z,0.70
2018-12-29T05:35:02.920Z,0.60
2018-12-29T05:37:31.968Z,0.50
2018-12-29T05:40:00.834Z,0.50
2018-12-29T05:42:30.033Z,0.50
2018-12-29T05:44:58.860Z,0.50
2018-12-29T05:47:27.684Z,0.50
2018-12-29T05:49:56.504Z,0.50
2018-12-29T05:52:25.570Z,0.50
2018-12-29T05:54:54.652Z,0.60
2018-12-29T05:57:23.705Z,0.50
2018-12-29T05:59:52.544Z,0.60
2018-12-29T06:02:21.349Z,0.70
2018-12-29T06:04:50.644Z,0.70
2018-12-29T06:07:19.979Z,0.80
2018-12-29T06:09:48.806Z,0.70
2018-12-29T06:12:18.061Z,0.80
2018-12-29T06:14:46.900Z,0.80
2018-12-29T06:17:15.800Z,0.80
2018-12-29T06:19:45.068Z,0.80
2018-12-29T06:22:14.126Z,0.80
2018-12-29T06:24:43.630Z,0.80
2018-12-29T06:27:12.717Z,0.70
2018-12-29T06:29:41.883Z,0.80
2018-12-29T06:32:10.765Z,0.80
2018-12-29T06:34:39.577Z,0.80
2018-12-29T06:37:08.709Z,0.80
2018-12-29T06:39:37.550Z,0.80
2018-12-29T06:42:06.481Z,0.90
2018-12-29T06:44:35.492Z,0.90
2018-12-29T06:47:04.649Z,0.90
2018-12-29T06:49:33.756Z,0.80
2018-12-29T06:52:02.731Z,0.80
2018-12-29T06:54:31.910Z,0.80
2018-12-29T06:57:01.033Z,0.80
2018-12-29T06:59:29.912Z,0.90
2018-12-29T07:01:58.738Z,0.90
2018-12-29T07:04:27.642Z,0.90
2018-12-29T07:06:56.725Z,0.90
2018-12-29T07:09:25.794Z,1.00
2018-12-29T07:11:54.876Z,1.00
2018-12-29T07:14:23.708Z,1.00
2018-12-29T07:16:52.837Z,1.00
2018-12-29T07:19:22.005Z,1.00
2018-12-29T07:21:50.856Z,1.00
2018-12-29T07:24:19.716Z,0.90
2018-12-29T07:26:48.599Z,1.00
2018-12-29T07:29:17.767Z,1.00
2018-12-29T07:31:46.789Z,1.00
2018-12-29T07:34:15.824Z,1.00
2018-12-29T07:36:44.976Z,1.00
2018-12-29T07:39:14.081Z,1.00
2018-12-29T07:41:43.433Z,1.00
2018-12-29T07:44:12.593Z,1.00
2018-12-29T07:46:41.729Z,1.00
2018-12-29T07:49:10.568Z,1.00
2018-12-29T07:51:39.498Z,1.10
2018-12-29T07:54:08.540Z,1.10
2018-12-29T07:56:37.492Z,1.10
2018-12-29T07:59:06.426Z,1.10
2018-12-29T08:01:35.277Z,1.20
2018-12-29T08:04:04.425Z,1.20
2018-12-29T08:06:33.425Z,1.20
2018-12-29T08:09:02.616Z,1.20
2018-12-29T08:11:31.846Z,1.20
2018-12-29T08:14:00.787Z,1.20
2018-12-29T08:16:30.889Z,1.20
2018-12-29T08:19:00.026Z,1.20
2018-12-29T08:21:28.888Z,1.30
2018-12-29T08:23:58.161Z,1.20
2018-12-29T08:26:27.354Z,1.30
2018-12-29T08:28:56.872Z,1.30
2018-12-29T08:31:25.800Z,1.30
2018-12-29T08:33:54.857Z,1.30
2018-12-29T08:36:23.787Z,1.30
2018-12-29T08:38:52.612Z,1.30
2018-12-29T08:41:21.525Z,1.20
2018-12-29T08:43:50.496Z,1.20
2018-12-29T08:46:19.314Z,1.20
2018-12-29T08:48:48.752Z,1.10
2018-12-29T08:51:17.665Z,1.20
2018-12-29T08:53:46.737Z,1.20
2018-12-29T08:56:16.157Z,1.20
2018-12-29T08:58:45.070Z,1.30
2018-12-29T09:01:13.918Z,1.30
2018-12-29T09:03:42.833Z,1.30
2018-12-29T09:06:11.695Z,1.40
2018-12-29T09:08:42.166Z,1.40
2018-12-29T09:11:11.311Z,1.50
2018-12-29T09:13:40.733Z,1.50
2018-12-29T09:16:10.426Z,1.50
2018-12-29T09:18:40.160Z,1.50
2018-12-29T09:21:09.368Z,1.50
2018-12-29T09:23:38.471Z,1.50
2018-12-29T09:26:07.492Z,1.50
2018-12-29T09:28:36.882Z,1.50
2018-12-29T09:31:05.859Z,1.50
2018-12-29T09:33:35.785Z,1.50
2018-12-29T09:36:05.390Z,1.50
2018-12-29T09:38:35.038Z,1.50
2018-12-29T09:41:04.132Z,1.40
2018-12-29T09:43:33.445Z,1.40
2018-12-29T09:46:02.533Z,1.50
2018-12-29T09:48:32.078Z,1.40
2018-12-29T09:51:01.530Z,1.50
2018-12-29T09:53:30.361Z,1.50
2018-12-29T09:55:59.676Z,1.50
2018-12-29T09:58:28.659Z,1.60
2018-12-29T10:00:57.641Z,1.60
2018-12-29T10:03:27.405Z,1.70
2018-12-29T10:05:56.378Z,1.70
2018-12-29T10:08:26.382Z,1.70
2018-12-29T10:10:56.449Z,1.70
2018-12-29T10:13:26.415Z,1.70
2018-12-29T10:15:55.468Z,1.80
2018-12-29T10:18:24.693Z,1.60
2018-12-29T10:20:53.532Z,1.70
2018-12-29T10:23:22.732Z,1.70
2018-12-29T10:25:51.997Z,1.80
2018-12-29T10:28:20.937Z,1.90
2018-12-29T10:30:50.532Z,1.90
2018-12-29T10:33:19.348Z,2.00
2018-12-29T10:35:48.266Z,2.00
2018-12-29T10:38:17.960Z,1.90
2018-12-29T10:40:47.370Z,1.90
2018-12-29T10:43:16.667Z,2.00
2018-12-29T10:45:45.577Z,2.00
2018-12-29T10:48:14.754Z,2.10
2018-12-29T10:50:43.929Z,2.10
2018-12-29T10:53:13.375Z,2.10
2018-12-29T10:55:42.537Z,2.20
2018-12-29T10:58:11.462Z,2.20
2018-12-29T11:00:40.934Z,2.10
2018-12-29T11:03:10.361Z,2.20
2018-12-29T11:05:39.270Z,2.20
2018-12-29T11:08:08.109Z,2.20
2018-12-29T11:10:37.038Z,2.20
2018-12-29T11:13:06.497Z,2.20
2018-12-29T11:15:35.698Z,2.20
2018-12-29T11:18:04.796Z,2.20
2018-12-29T11:20:33.972Z,2.20
2018-12-29T11:23:02.920Z,2.30
2018-12-29T11:25:32.460Z,2.30
2018-12-29T11:28:01.486Z,2.20
2018-12-29T11:30:30.571Z,2.30
2018-12-29T11:33:00.004Z,2.30
2018-12-29T11:35:29.515Z,2.30
2018-12-29T11:37:58.727Z,2.30
2018-12-29T11:40:28.519Z,2.30
2018-12-29T11:42:57.442Z,2.30
2018-12-29T11:45:26.413Z,2.40
2018-12-29T11:47:55.286Z,2.40
2018-12-29T11:50:24.530Z,2.40
2018-12-29T11:52:53.645Z,2.40
2018-12-29T11:55:22.482Z,2.50
2018-12-29T11:57:51.484Z,2.50
2018-12-29T12:00:20.596Z,2.50
2018-12-29T12:02:49.692Z,2.50
2018-12-29T12:05:19.317Z,2.60
2018-12-29T12:07:48.748Z,2.60
2018-12-29T12:10:17.943Z,2.60
2018-12-29T12:12:47.084Z,2.50
2018-12-29T12:15:16.258Z,2.50
2018-12-29T12:17:45.360Z,2.60
2018-12-29T12:20:14.885Z,2.60
2018-12-29T12:22:44.088Z,2.60
2018-12-29T12:25:13.320Z,2.60
2018-12-29T12:27:42.746Z,2.50
2018-12-29T12:30:12.200Z,2.40
2018-12-29T12:32:41.311Z,2.40
2018-12-29T12:35:10.232Z,2.30
2018-12-29T12:37:39.077Z,2.40
2018-12-29T12:40:08.241Z,2.40
2018-12-29T12:42:37.400Z,2.50
2018-12-29T12:45:06.539Z,2.50
2018-12-29T12:47:35.810Z,2.60
2018-12-29T12:50:05.391Z,2.60
2018-12-29T12:52:34.917Z,2.70
2018-12-29T12:55:04.185Z,2.70
2018-12-29T12:57:33.036Z,2.80
2018-12-29T13:00:02.553Z,2.80
2018-12-29T13:02:31.700Z,2.90
2018-12-29T13:05:01.006Z,2.90
2018-12-29T13:07:30.433Z,2.90
2018-12-29T13:09:59.578Z,3.00
2018-12-29T13:12:28.885Z,3.00
2018-12-29T13:14:58.135Z,2.90
2018-12-29T13:17:27.321Z,2.80
2018-12-29T13:19:56.420Z,2.90
2018-12-29T13:22:25.602Z,2.90
2018-12-29T13:24:54.873Z,2.90
2018-12-29T13:27:24.626Z,2.90
2018-12-29T13:29:54.301Z,2.80
2018-12-29T13:32:23.439Z,2.70
2018-12-29T13:34:53.129Z,2.80
2018-12-29T13:37:22.457Z,2.80
2018-12-29T13:39:51.606Z,2.80
2018-12-29T13:42:20.551Z,2.70
2018-12-29T13:44:49.867Z,2.70
2018-12-29T13:47:18.865Z,2.60
2018-12-29T13:49:47.937Z,2.60
2018-12-29T13:52:17.585Z,2.70
2018-12-29T13:54:46.899Z,2.70
2018-12-29T13:57:19.163Z,2.70
2018-12-29T13:59:48.557Z,2.80
2018-12-29T14:02:17.646Z,2.90
2018-12-29T14:04:46.679Z,2.90
2018-12-29T14:07:15.834Z,2.90
2018-12-29T14:09:45.103Z,2.90
2018-12-29T14:12:14.024Z,2.90
2018-12-29T14:14:43.715Z,2.90
2018-12-29T14:17:13.014Z,2.90
2018-12-29T14:19:42.003Z,2.90
2018-12-29T14:22:10.940Z,2.90
2018-12-29T14:24:39.919Z,2.90
2018-12-29T14:27:09.829Z,2.90
2018-12-29T14:29:39.288Z,2.90
2018-12-29T14:32:08.224Z,2.90
2018-12-29T14:34:37.363Z,3.00
2018-12-29T14:37:06.916Z,3.00
2018-12-29T14:39:36.026Z,3.00
2018-12-29T14:42:05.356Z,3.00
2018-12-29T14:44:34.510Z,3.00
2018-12-29T14:47:03.763Z,2.90
2018-12-29T14:49:32.688Z,2.90
2018-12-29T14:52:02.129Z,2.90
2018-12-29T14:54:31.650Z,2.90
2018-12-29T14:57:00.528Z,2.90
2018-12-29T14:59:29.603Z,2.90
2018-12-29T15:01:58.548Z,2.90
2018-12-29T15:04:27.465Z,2.90
2018-12-29T15:06:56.554Z,2.90
2018-12-29T15:09:25.525Z,2.90
2018-12-29T15:11:54.729Z,3.00
2018-12-29T15:14:23.689Z,2.90
2018-12-29T15:16:52.991Z,2.90
2018-12-29T15:19:32.696Z,2.90
2018-12-29T15:22:01.968Z,2.80
2018-12-29T15:24:31.094Z,2.90
2018-12-29T15:27:00.362Z,2.90
2018-12-29T15:29:29.244Z,2.90
2018-12-29T15:31:58.175Z,2.90
2018-12-29T15:34:27.031Z,3.00
2018-12-29T15:36:56.220Z,3.00
2018-12-29T15:39:25.899Z,3.00
2018-12-29T15:41:56.001Z,3.00
2018-12-29T15:44:25.510Z,3.00
2018-12-29T15:46:54.684Z,3.00
2018-12-29T15:49:23.827Z,3.00
2018-12-29T15:51:53.149Z,3.00
2018-12-29T15:54:22.607Z,3.00
2018-12-29T15:56:51.856Z,3.00
2018-12-29T15:59:21.011Z,3.00
2018-12-29T16:01:50.399Z,3.00
2018-12-29T16:04:20.055Z,3.00
2018-12-29T16:06:49.081Z,3.00
2018-12-29T16:09:18.291Z,3.00
2018-12-29T16:11:47.709Z,3.00
2018-12-29T16:14:16.641Z,3.00
2018-12-29T16:16:46.149Z,3.00
2018-12-29T16:19:15.380Z,3.00
2018-12-29T16:21:44.546Z,3.00
2018-12-29T16:24:13.846Z,3.00
2018-12-29T16:26:43.127Z,3.00
2018-12-29T16:29:13.549Z,3.00
2018-12-29T16:31:42.849Z,3.00
2018-12-29T16:34:12.177Z,3.00
2018-12-29T16:36:41.657Z,3.00
2018-12-29T16:39:10.766Z,3.00
2018-12-29T16:41:39.997Z,3.00
2018-12-29T16:44:09.052Z,3.00
2018-12-29T16:46:38.273Z,3.00
2018-12-29T16:49:07.285Z,3.00
2018-12-29T16:51:36.368Z,3.00
2018-12-29T16:54:05.627Z,3.00
2018-12-29T16:56:35.110Z,3.00
2018-12-29T16:59:04.580Z,3.00
2018-12-29T17:01:33.660Z,3.00
2018-12-29T17:04:02.807Z,3.00
2018-12-29T17:06:32.356Z,3.00
2018-12-29T17:09:01.432Z,3.00
2018-12-29T17:11:30.485Z,3.00
2018-12-29T17:13:59.385Z,3.10
2018-12-29T17:16:28.588Z,3.10
2018-12-29T17:18:57.737Z,3.00
2018-12-29T17:21:26.737Z,3.10
2018-12-29T17:23:57.057Z,3.00
2018-12-29T17:26:26.257Z,3.00
2018-12-29T17:28:55.399Z,3.10
2018-12-29T17:31:25.794Z,3.10
2018-12-29T17:33:54.812Z,3.10
2018-12-29T17:36:24.247Z,3.10
2018-12-29T17:38:53.821Z,3.10
2018-12-29T17:41:22.683Z,3.10
2018-12-29T17:43:52.126Z,3.10
2018-12-29T17:46:21.439Z,3.10
2018-12-29T17:48:50.653Z,3.10
2018-12-29T17:51:19.790Z,3.20
2018-12-29T17:53:49.117Z,3.20
2018-12-29T17:56:18.660Z,3.20
2018-12-29T17:58:47.835Z,3.30
2018-12-29T18:01:16.676Z,3.30
2018-12-29T18:03:46.177Z,3.30
2018-12-29T18:06:15.111Z,3.30
2018-12-29T18:08:44.295Z,3.30
2018-12-29T18:11:13.335Z,3.30
2018-12-29T18:13:42.757Z,3.30
2018-12-29T18:16:12.058Z,3.20
2018-12-29T18:18:41.100Z,3.20
2018-12-29T18:21:10.117Z,3.20
2018-12-29T18:23:39.235Z,3.30
2018-12-29T18:26:08.663Z,3.30
2018-12-29T18:28:37.889Z,3.20
2018-12-29T18:31:07.420Z,3.20
2018-12-29T18:33:37.327Z,3.20
2018-12-29T18:36:06.408Z,3.20
2018-12-29T18:38:35.571Z,3.20
2018-12-29T18:41:04.404Z,3.20
2018-12-29T18:43:33.504Z,3.20
2018-12-29T18:46:02.358Z,3.20
2018-12-29T18:48:31.649Z,3.20
2018-12-29T18:51:00.750Z,3.20
2018-12-29T18:53:29.813Z,3.20
2018-12-29T18:55:59.142Z,3.20
2018-12-29T18:58:28.083Z,3.20
2018-12-29T19:00:57.286Z,3.20
2018-12-29T19:03:26.320Z,3.20
2018-12-29T19:05:55.666Z,3.20
2018-12-29T19:08:24.637Z,3.20
2018-12-29T19:10:53.652Z,3.20
2018-12-29T19:13:23.078Z,3.20
2018-12-29T19:15:52.278Z,3.30
2018-12-29T19:18:21.281Z,3.30
2018-12-29T19:20:51.597Z,3.30
2018-12-29T19:23:21.438Z,3.30
2018-12-29T19:25:51.020Z,3.30
2018-12-29T19:28:20.631Z,3.40
2018-12-29T19:30:49.857Z,3.40
2018-12-29T19:33:19.413Z,3.40
2018-12-29T19:35:49.211Z,3.30
2018-12-29T19:38:18.758Z,3.30
2018-12-29T19:40:51.888Z,3.40
2018-12-29T19:43:21.559Z,3.30
2018-12-29T19:45:50.882Z,3.40
2018-12-29T19:48:19.898Z,3.40
2018-12-29T19:50:49.161Z,3.40
2018-12-29T19:53:18.320Z,3.40
2018-12-29T19:55:47.386Z,3.40
2018-12-29T19:58:16.229Z,3.40
2018-12-29T20:00:45.291Z,3.40
2018-12-29T20:03:14.653Z,3.40
2018-12-29T20:05:44.153Z,3.40
2018-12-29T20:08:13.155Z,3.40
2018-12-29T20:10:42.462Z,3.40
2018-12-29T20:13:11.521Z,3.40
2018-12-29T20:15:40.728Z,3.40
2018-12-29T20:18:10.115Z,3.50
2018-12-29T20:20:39.233Z,3.50
2018-12-29T20:23:08.162Z,3.50
2018-12-29T20:25:37.140Z,3.50
2018-12-29T20:28:06.210Z,3.50
2018-12-29T20:30:35.465Z,3.50
2018-12-29T20:33:04.753Z,3.60
2018-12-29T20:35:33.732Z,3.50
2018-12-29T20:38:02.609Z,3.60
2018-12-29T20:40:31.515Z,3.60
2018-12-29T20:43:00.424Z,3.60
2018-12-29T20:45:29.486Z,3.60
2018-12-29T20:47:58.502Z,3.60
2018-12-29T20:50:27.640Z,3.60
2018-12-29T20:52:56.543Z,3.60
2018-12-29T20:55:25.776Z,3.60
2018-12-29T20:57:54.622Z,3.70
2018-12-29T21:00:23.785Z,3.70
2018-12-29T21:02:53.346Z,3.70
2018-12-29T21:05:22.569Z,3.70
2018-12-29T21:07:52.555Z,3.70
2018-12-29T21:10:22.282Z,3.70
2018-12-29T21:12:51.166Z,3.80
2018-12-29T21:15:20.278Z,3.80
2018-12-29T21:17:52.176Z,3.80
2018-12-29T21:20:21.259Z,3.80
2018-12-29T21:22:50.229Z,3.90
2018-12-29T21:25:20.196Z,3.90
2018-12-29T21:27:49.192Z,3.90
2018-12-29T21:30:18.429Z,4.00
2018-12-29T21:32:47.334Z,4.00
2018-12-29T21:35:16.361Z,4.00
2018-12-29T21:37:45.823Z,4.00
2018-12-29T21:40:14.808Z,4.10
2018-12-29T21:42:44.226Z,4.10
2018-12-29T21:45:13.410Z,4.10
2018-12-29T21:47:42.329Z,4.20
2018-12-29T21:50:11.348Z,4.20
2018-12-29T21:52:40.577Z,4.20
2018-12-29T21:55:09.706Z,4.30
2018-12-29T21:57:38.808Z,4.30
2018-12-29T22:00:09.318Z,4.30
2018-12-29T22:02:38.749Z,4.40
2018-12-29T22:05:07.686Z,4.40
2018-12-29T22:07:37.305Z,4.50
2018-12-29T22:10:06.742Z,4.50
2018-12-29T22:12:35.544Z,4.50
2018-12-29T22:15:07.721Z,4.50
2018-12-29T22:17:36.748Z,4.50
2018-12-29T22:20:06.018Z,4.60
2018-12-29T22:22:34.932Z,4.60
2018-12-29T22:25:04.186Z,4.70
2018-12-29T22:27:33.289Z,4.70
2018-12-29T22:30:02.217Z,4.70
2018-12-29T22:32:31.473Z,4.70
2018-12-29T22:35:00.936Z,4.70
2018-12-29T22:37:30.758Z,4.70
2018-12-29T22:39:59.945Z,4.80
2018-12-29T22:42:29.134Z,4.80
2018-12-29T22:44:58.400Z,4.80
2018-12-29T22:47:27.571Z,4.90
2018-12-29T22:49:56.502Z,4.90
2018-12-29T22:52:25.766Z,4.90
2018-12-29T22:54:54.710Z,4.90
2018-12-29T22:57:23.748Z,5.00
2018-12-29T22:59:53.300Z,5.00
2018-12-29T23:02:22.312Z,5.00
2018-12-29T23:04:51.294Z,5.00
2018-12-29T23:07:21.119Z,5.10
2018-12-29T23:09:50.238Z,5.10
2018-12-29T23:12:19.351Z,5.10
2018-12-29T23:14:48.625Z,5.10
2018-12-29T23:17:17.851Z,5.10
2018-12-29T23:19:47.116Z,5.10
2018-12-29T23:22:16.084Z,5.10
2018-12-29T23:24:45.062Z,5.20
2018-12-29T23:27:13.895Z,5.20
2018-12-29T23:29:42.887Z,5.20
2018-12-29T23:32:11.981Z,5.20
2018-12-29T23:34:41.103Z,5.20
2018-12-29T23:37:10.354Z,5.30
2018-12-29T23:39:39.445Z,5.30
2018-12-29T23:42:08.653Z,5.30
2018-12-29T23:44:37.505Z,5.40
2018-12-29T23:47:06.567Z,5.40
2018-12-29T23:49:36.225Z,5.40
2018-12-29T23:52:05.840Z,5.50
2018-12-29T23:54:34.803Z,5.50
2018-12-29T23:57:03.968Z,5.50
2018-12-29T23:59:32.835Z,5.60
